createdAt,value
2018-02-05T00:00:45.871Z,1024
2018-02-05T00:01:45.323Z,1023.97
2018-02-05T00:02:45.734Z,1023.96
2018-02-05T00:03:46.136Z,1023.97
2018-02-05T00:04:45.838Z,1023.96
2018-02-05T00:05:46.245Z,1023.94
2018-02-05T00:06:46.661Z,1023.94
2018-02-05T00:07:46.114Z,1023.94
2018-02-05T00:08:46.527Z,1023.9
2018-02-05T00:09:45.940Z,1023.93
2018-02-05T00:10:46.351Z,1023.92
2018-02-05T00:11:46.762Z,1023.91
2018-02-05T00:12:46.197Z,1023.93
2018-02-05T00:13:46.607Z,1023.91
2018-02-05T00:14:46.026Z,1023.89
2018-02-05T00:15:46.446Z,1023.92
2018-02-05T00:16:45.848Z,1023.95
2018-02-05T00:17:46.271Z,1023.96
2018-02-05T00:18:46.710Z,1024
2018-02-05T00:19:46.112Z,1024.01
2018-02-05T00:20:46.532Z,1024
2018-02-05T00:21:45.948Z,1024.01
2018-02-05T00:22:46.354Z,1024.03
2018-02-05T00:23:45.792Z,1024.05
2018-02-05T00:24:46.204Z,1024.08
2018-02-05T00:25:46.623Z,1024.07
2018-02-05T00:26:46.040Z,1024.08
2018-02-05T00:27:46.460Z,1024.11
2018-02-05T00:28:45.868Z,1024.13
2018-02-05T00:29:46.266Z,1024.1
2018-02-05T00:30:46.673Z,1024.16
2018-02-05T00:31:46.137Z,1024.11
2018-02-05T00:32:46.549Z,1024.11
2018-02-05T00:33:45.956Z,1024.11
2018-02-05T00:34:46.375Z,1024.12
2018-02-05T00:35:45.771Z,1024.1
2018-02-05T00:36:46.167Z,1024.17
2018-02-05T00:37:45.565Z,1024.17
2018-02-05T00:38:45.982Z,1024.15
2018-02-05T00:39:45.390Z,1024.21
2018-02-05T00:40:45.802Z,1024.22
2018-02-05T00:41:46.207Z,1024.27
2018-02-05T00:42:45.604Z,1024.26
2018-02-05T00:43:46.024Z,1024.26
2018-02-05T00:44:45.451Z,1024.25
2018-02-05T00:45:45.857Z,1024.29
2018-02-05T00:46:46.258Z,1024.29
2018-02-05T00:47:45.672Z,1024.3
2018-02-05T00:48:46.082Z,1024.3
2018-02-05T00:49:45.484Z,1024.35
2018-02-05T00:50:45.904Z,1024.32
2018-02-05T00:51:46.330Z,1024.34
2018-02-05T00:52:45.748Z,1024.34
2018-02-05T00:53:46.183Z,1024.35
2018-02-05T00:54:45.741Z,1024.34
2018-02-05T00:55:46.153Z,1024.38
2018-02-05T00:56:45.542Z,1024.38
2018-02-05T00:57:45.963Z,1024.37
2018-02-05T00:58:45.372Z,1024.4
2018-02-05T00:59:45.802Z,1024.39
2018-02-05T01:00:46.219Z,1024.41
2018-02-05T01:01:45.642Z,1024.43
2018-02-05T01:02:46.053Z,1024.41
2018-02-05T01:03:45.468Z,1024.43
2018-02-05T01:04:45.874Z,1024.44
2018-02-05T01:05:46.488Z,1024.44
2018-02-05T01:06:46.890Z,1024.47
2018-02-05T01:07:46.316Z,1024.46
2018-02-05T01:08:46.755Z,1024.47
2018-02-05T01:09:46.164Z,1024.46
2018-02-05T01:10:46.552Z,1024.46
2018-02-05T01:11:46.979Z,1024.49
2018-02-05T01:12:46.400Z,1024.5
2018-02-05T01:13:46.801Z,1024.52
2018-02-05T01:14:46.210Z,1024.55
2018-02-05T01:15:46.614Z,1024.52
2018-02-05T01:16:47.045Z,1024.52
2018-02-05T01:17:46.458Z,1024.56
2018-02-05T01:18:46.863Z,1024.56
2018-02-05T01:19:46.264Z,1024.58
2018-02-05T01:20:46.664Z,1024.58
2018-02-05T01:21:46.075Z,1024.6
2018-02-05T01:22:46.497Z,1024.56
2018-02-05T01:23:46.911Z,1024.6
2018-02-05T01:24:46.318Z,1024.62
2018-02-05T01:25:46.716Z,1024.64
2018-02-05T01:26:46.243Z,1024.66
2018-02-05T01:27:46.637Z,1024.62
2018-02-05T01:28:47.029Z,1024.63
2018-02-05T01:29:46.460Z,1024.65
2018-02-05T01:30:46.855Z,1024.62
2018-02-05T01:31:46.300Z,1024.63
2018-02-05T01:32:46.720Z,1024.65
2018-02-05T01:33:46.118Z,1024.65
2018-02-05T01:34:46.515Z,1024.61
2018-02-05T01:35:45.959Z,1024.67
2018-02-05T01:36:46.358Z,1024.66
2018-02-05T01:37:46.763Z,1024.6
2018-02-05T01:38:46.156Z,1024.68
2018-02-05T01:39:46.573Z,1024.65
2018-02-05T01:40:45.913Z,1024.68
2018-02-05T01:41:46.315Z,1024.67
2018-02-05T01:42:46.706Z,1024.65
2018-02-05T01:43:46.056Z,1024.65
2018-02-05T01:44:46.471Z,1024.67
2018-02-05T01:45:46.878Z,1024.62
2018-02-05T01:46:46.274Z,1024.68
2018-02-05T01:47:46.671Z,1024.65
2018-02-05T01:48:46.171Z,1024.65
2018-02-05T01:49:46.580Z,1024.58
2018-02-05T01:50:45.986Z,1024.61
2018-02-05T01:51:46.385Z,1024.6
2018-02-05T01:52:46.782Z,1024.66
2018-02-05T01:53:46.117Z,1024.63
2018-02-05T01:54:46.550Z,1024.62
2018-02-05T01:55:45.944Z,1024.61
2018-02-05T01:56:46.353Z,1024.63
2018-02-05T01:57:46.751Z,1024.62
2018-02-05T01:58:46.193Z,1024.64
2018-02-05T01:59:46.592Z,1024.64
2018-02-05T02:00:46.018Z,1024.64
2018-02-05T02:01:46.416Z,1024.68
2018-02-05T02:02:46.803Z,1024.69
2018-02-05T02:03:46.194Z,1024.73
2018-02-05T02:04:46.604Z,1024.68
2018-02-05T02:05:46.235Z,1024.68
2018-02-05T02:06:46.642Z,1024.68
2018-02-05T02:07:47.040Z,1024.72
2018-02-05T02:08:46.431Z,1024.72
2018-02-05T02:09:46.839Z,1024.69
2018-02-05T02:10:46.246Z,1024.73
2018-02-05T02:11:46.652Z,1024.72
2018-02-05T02:12:47.065Z,1024.72
2018-02-05T02:13:46.470Z,1024.74
2018-02-05T02:14:46.903Z,1024.77
2018-02-05T02:15:46.414Z,1024.79
2018-02-05T02:16:46.805Z,1024.82
2018-02-05T02:17:46.206Z,1024.78
2018-02-05T02:18:46.601Z,1024.84
2018-02-05T02:19:47.018Z,1024.83
2018-02-05T02:20:46.414Z,1024.81
2018-02-05T02:21:46.802Z,1024.86
2018-02-05T02:22:46.191Z,1024.79
2018-02-05T02:23:46.599Z,1024.82
2018-02-05T02:24:47.008Z,1024.75
2018-02-05T02:25:46.406Z,1024.8
2018-02-05T02:26:46.849Z,1024.81
2018-02-05T02:27:46.249Z,1024.87
2018-02-05T02:28:46.646Z,1024.88
2018-02-05T02:29:47.078Z,1024.91
2018-02-05T02:30:46.460Z,1024.91
2018-02-05T02:31:46.861Z,1024.89
2018-02-05T02:32:46.257Z,1024.89
2018-02-05T02:33:46.662Z,1024.96
2018-02-05T02:34:47.094Z,1025
2018-02-05T02:35:45.598Z,1024.96
2018-02-05T02:36:45.997Z,1024.98
2018-02-05T02:37:46.416Z,1024.98
2018-02-05T02:38:45.843Z,1025.02
2018-02-05T02:39:46.241Z,1025.01
2018-02-05T02:40:45.641Z,1025
2018-02-05T02:41:46.046Z,1024.97
2018-02-05T02:42:46.555Z,1025.01
2018-02-05T02:43:45.964Z,1025
2018-02-05T02:44:46.349Z,1025.02
2018-02-05T02:45:45.791Z,1025.03
2018-02-05T02:46:46.187Z,1025.03
2018-02-05T02:47:45.584Z,1025.03
2018-02-05T02:48:45.988Z,1024.99
2018-02-05T02:49:46.872Z,1025.02
2018-02-05T02:50:46.266Z,1025
2018-02-05T02:51:45.680Z,1025.02
2018-02-05T02:52:46.071Z,1025.03
2018-02-05T02:53:46.498Z,1025.02
2018-02-05T02:54:45.871Z,1025.09
2018-02-05T02:55:46.279Z,1025.05
2018-02-05T02:56:45.704Z,1025.06
2018-02-05T02:57:46.115Z,1025.07
2018-02-05T02:58:46.570Z,1025.06
2018-02-05T02:59:45.974Z,1025.1
2018-02-05T03:00:46.366Z,1025.08
2018-02-05T03:01:45.772Z,1025.11
2018-02-05T03:02:46.195Z,1025.15
2018-02-05T03:03:45.641Z,1025.17
2018-02-05T03:04:46.034Z,1025.14
2018-02-05T03:05:46.469Z,1025.17
2018-02-05T03:06:46.056Z,1025.18
2018-02-05T03:07:45.472Z,1025.19
2018-02-05T03:08:45.863Z,1025.23
2018-02-05T03:09:46.288Z,1025.17
2018-02-05T03:10:45.690Z,1025.19
2018-02-05T03:11:46.102Z,1025.16
2018-02-05T03:12:45.527Z,1025.16
2018-02-05T03:13:45.950Z,1025.18
2018-02-05T03:14:45.347Z,1025.19
2018-02-05T03:15:45.741Z,1025.13
2018-02-05T03:16:46.177Z,1025.13
2018-02-05T03:17:45.583Z,1025.19
2018-02-05T03:18:45.974Z,1025.17
2018-02-05T03:19:45.410Z,1025.13
2018-02-05T03:20:45.849Z,1025.18
2018-02-05T03:21:46.257Z,1025.16
2018-02-05T03:22:45.651Z,1025.17
2018-02-05T03:23:46.054Z,1025.2
2018-02-05T03:24:45.463Z,1025.16
2018-02-05T03:25:45.874Z,1025.19
2018-02-05T03:26:46.291Z,1025.18
2018-02-05T03:27:45.687Z,1025.23
2018-02-05T03:28:46.074Z,1025.2
2018-02-05T03:29:45.508Z,1025.2
2018-02-05T03:30:45.936Z,1025.18
2018-02-05T03:31:45.348Z,1025.21
2018-02-05T03:32:45.741Z,1025.24
2018-02-05T03:33:46.140Z,1025.23
2018-02-05T03:34:45.552Z,1025.25
2018-02-05T03:35:45.942Z,1025.23
2018-02-05T03:36:46.416Z,1025.22
2018-02-05T03:37:46.823Z,1025.17
2018-02-05T03:38:46.226Z,1025.22
2018-02-05T03:39:46.633Z,1025.17
2018-02-05T03:40:46.031Z,1025.24
2018-02-05T03:41:46.460Z,1025.2
2018-02-05T03:42:46.918Z,1025.26
2018-02-05T03:43:46.318Z,1025.27
2018-02-05T03:44:46.713Z,1025.23
2018-02-05T03:45:46.141Z,1025.21
2018-02-05T03:46:46.544Z,1025.22
2018-02-05T03:47:46.962Z,1025.26
2018-02-05T03:48:46.354Z,1025.28
2018-02-05T03:49:46.739Z,1025.23
2018-02-05T03:50:46.155Z,1025.27
2018-02-05T03:51:46.540Z,1025.26
2018-02-05T03:52:46.949Z,1025.26
2018-02-05T03:53:46.374Z,1025.23
2018-02-05T03:54:46.795Z,1025.25
2018-02-05T03:55:46.201Z,1025.27
2018-02-05T03:56:46.600Z,1025.27
2018-02-05T03:57:47.014Z,1025.28
2018-02-05T03:58:46.427Z,1025.3
2018-02-05T03:59:46.844Z,1025.33
2018-02-05T04:00:46.227Z,1025.38
2018-02-05T04:01:46.650Z,1025.32
2018-02-05T04:02:46.055Z,1025.32
2018-02-05T04:03:46.466Z,1025.36
2018-02-05T04:04:46.862Z,1025.37
2018-02-05T04:05:46.290Z,1025.33
2018-02-05T04:06:45.765Z,1025.41
2018-02-05T04:07:46.420Z,1025.4
2018-02-05T04:08:45.807Z,1025.39
2018-02-05T04:09:46.206Z,1025.44
2018-02-05T04:10:46.609Z,1025.43
2018-02-05T04:11:46.020Z,1025.42
2018-02-05T04:12:46.402Z,1025.49
2018-02-05T04:13:45.866Z,1025.47
2018-02-05T04:14:46.251Z,1025.5
2018-02-05T04:15:46.649Z,1025.49
2018-02-05T04:16:46.052Z,1025.49
2018-02-05T04:17:46.457Z,1025.49
2018-02-05T04:18:45.842Z,1025.47
2018-02-05T04:19:46.242Z,1025.46
2018-02-05T04:20:46.642Z,1025.48
2018-02-05T04:21:46.040Z,1025.46
2018-02-05T04:22:46.438Z,1025.47
2018-02-05T04:23:45.828Z,1025.5
2018-02-05T04:24:46.221Z,1025.49
2018-02-05T04:25:46.608Z,1025.5
2018-02-05T04:26:46.015Z,1025.5
2018-02-05T04:27:46.414Z,1025.44
2018-02-05T04:28:45.838Z,1025.48
2018-02-05T04:29:46.238Z,1025.46
2018-02-05T04:30:46.642Z,1025.53
2018-02-05T04:31:46.050Z,1025.46
2018-02-05T04:32:46.498Z,1025.49
2018-02-05T04:33:45.915Z,1025.46
2018-02-05T04:34:46.310Z,1025.43
2018-02-05T04:35:45.711Z,1025.43
2018-02-05T04:36:46.126Z,1025.42
2018-02-05T04:37:46.542Z,1025.41
2018-02-05T04:38:46.943Z,1025.45
2018-02-05T04:39:46.406Z,1025.37
2018-02-05T04:40:46.815Z,1025.36
2018-02-05T04:41:46.207Z,1025.39
2018-02-05T04:42:46.629Z,1025.38
2018-02-05T04:43:47.060Z,1025.46
2018-02-05T04:44:46.469Z,1025.36
2018-02-05T04:45:46.905Z,1025.42
2018-02-05T04:47:46.946Z,1025.44
2018-02-05T04:48:46.344Z,1025.43
2018-02-05T04:49:46.751Z,1025.47
2018-02-05T04:50:46.146Z,1025.47
2018-02-05T04:51:46.530Z,1025.47
2018-02-05T04:52:46.941Z,1025.43
2018-02-05T04:53:46.323Z,1025.42
2018-02-05T04:54:46.727Z,1025.45
2018-02-05T04:55:46.155Z,1025.39
2018-02-05T04:56:46.566Z,1025.43
2018-02-05T04:57:46.994Z,1025.42
2018-02-05T04:58:46.390Z,1025.46
2018-02-05T04:59:46.788Z,1025.4
2018-02-05T05:00:46.185Z,1025.39
2018-02-05T05:01:46.574Z,1025.43
2018-02-05T05:02:47.010Z,1025.45
2018-02-05T05:03:46.399Z,1025.45
2018-02-05T05:04:46.801Z,1025.41
2018-02-05T05:05:46.195Z,1025.45
2018-02-05T05:06:46.631Z,1025.43
2018-02-05T05:07:46.223Z,1025.48
2018-02-05T05:08:46.606Z,1025.47
2018-02-05T05:09:46.047Z,1025.49
2018-02-05T05:10:46.447Z,1025.47
2018-02-05T05:11:46.832Z,1025.45
2018-02-05T05:12:46.275Z,1025.44
2018-02-05T05:13:46.631Z,1025.49
2018-02-05T05:14:46.067Z,1025.47
2018-02-05T05:15:46.461Z,1025.49
2018-02-05T05:16:46.072Z,1025.56
2018-02-05T05:17:46.501Z,1025.57
2018-02-05T05:18:45.942Z,1025.57
2018-02-05T05:19:46.355Z,1025.58
2018-02-05T05:20:46.746Z,1025.57
2018-02-05T05:21:46.170Z,1025.59
2018-02-05T05:22:46.615Z,1025.6
2018-02-05T05:23:46.043Z,1025.62
2018-02-05T05:24:46.440Z,1025.58
2018-02-05T05:25:45.852Z,1025.53
2018-02-05T05:26:46.269Z,1025.52
2018-02-05T05:27:46.663Z,1025.55
2018-02-05T05:28:46.077Z,1025.54
2018-02-05T05:29:46.530Z,1025.56
2018-02-05T05:30:45.959Z,1025.56
2018-02-05T05:31:46.368Z,1025.59
2018-02-05T05:32:46.796Z,1025.57
2018-02-05T05:33:46.202Z,1025.53
2018-02-05T05:34:46.588Z,1025.56
2018-02-05T05:35:46.026Z,1025.57
2018-02-05T05:36:46.444Z,1025.57
2018-02-05T05:37:45.880Z,1025.55
2018-02-05T05:38:46.280Z,1025.59
2018-02-05T05:39:45.704Z,1025.57
2018-02-05T05:40:46.103Z,1025.61
2018-02-05T05:41:46.512Z,1025.57
2018-02-05T05:42:45.913Z,1025.59
2018-02-05T05:43:46.328Z,1025.62
2018-02-05T05:44:45.732Z,1025.58
2018-02-05T05:45:46.144Z,1025.62
2018-02-05T05:46:46.525Z,1025.61
2018-02-05T05:47:45.936Z,1025.59
2018-02-05T05:48:46.346Z,1025.55
2018-02-05T05:49:45.988Z,1025.6
2018-02-05T05:50:46.386Z,1025.57
2018-02-05T05:51:45.777Z,1025.58
2018-02-05T05:52:46.172Z,1025.65
2018-02-05T05:53:45.574Z,1025.59
2018-02-05T05:54:45.979Z,1025.56
2018-02-05T05:55:46.382Z,1025.6
2018-02-05T05:56:45.792Z,1025.59
2018-02-05T05:57:46.215Z,1025.63
2018-02-05T05:58:45.623Z,1025.64
2018-02-05T05:59:46.045Z,1025.62
2018-02-05T06:00:46.479Z,1025.63
2018-02-05T06:01:45.886Z,1025.62
2018-02-05T06:02:46.281Z,1025.62
2018-02-05T06:03:45.703Z,1025.66
2018-02-05T06:05:46.404Z,1025.74
2018-02-05T06:06:45.814Z,1025.78
2018-02-05T06:07:46.241Z,1025.78
2018-02-05T06:08:46.840Z,1025.77
2018-02-05T06:09:46.299Z,1025.84
2018-02-05T06:10:46.721Z,1025.81
2018-02-05T06:11:47.129Z,1025.87
2018-02-05T06:12:46.533Z,1025.86
2018-02-05T06:13:46.926Z,1025.84
2018-02-05T06:14:46.313Z,1025.84
2018-02-05T06:15:46.703Z,1025.84
2018-02-05T06:16:47.106Z,1025.85
2018-02-05T06:17:46.512Z,1025.79
2018-02-05T06:18:47.057Z,1025.82
2018-02-05T06:19:46.447Z,1025.82
2018-02-05T06:20:46.840Z,1025.81
2018-02-05T06:21:46.241Z,1025.83
2018-02-05T06:22:46.662Z,1025.86
2018-02-05T06:23:47.120Z,1025.81
2018-02-05T06:24:46.552Z,1025.84
2018-02-05T06:25:46.979Z,1025.85
2018-02-05T06:26:46.387Z,1025.82
2018-02-05T06:27:46.809Z,1025.82
2018-02-05T06:28:46.249Z,1025.86
2018-02-05T06:29:46.629Z,1025.88
2018-02-05T06:30:47.068Z,1025.88
2018-02-05T06:31:46.461Z,1025.86
2018-02-05T06:32:46.902Z,1025.86
2018-02-05T06:33:46.361Z,1025.88
2018-02-05T06:34:46.759Z,1025.91
2018-02-05T06:35:47.138Z,1025.9
2018-02-05T06:36:46.558Z,1025.97
2018-02-05T06:37:46.033Z,1025.94
2018-02-05T06:38:46.614Z,1025.97
2018-02-05T06:39:46.048Z,1025.98
2018-02-05T06:40:46.443Z,1026.01
2018-02-05T06:41:46.834Z,1026.04
2018-02-05T06:42:46.238Z,1026
2018-02-05T06:43:46.690Z,1025.98
2018-02-05T06:44:46.090Z,1025.98
2018-02-05T06:45:46.498Z,1026.01
2018-02-05T06:46:47.188Z,1026.04
2018-02-05T06:47:47.109Z,1026.04
2018-02-05T06:48:46.500Z,1026.02
2018-02-05T06:49:46.888Z,1026.06
2018-02-05T06:50:46.297Z,1026.09
2018-02-05T06:51:46.726Z,1026.07
2018-02-05T06:52:46.147Z,1026.11
2018-02-05T06:53:46.528Z,1026.14
2018-02-05T06:54:46.905Z,1026.12
2018-02-05T06:55:46.284Z,1026.14
2018-02-05T06:56:46.956Z,1026.18
2018-02-05T06:57:46.345Z,1026.17
2018-02-05T06:58:46.753Z,1026.15
2018-02-05T06:59:46.140Z,1026.17
2018-02-05T07:00:46.535Z,1026.19
2018-02-05T07:01:47.089Z,1026.2
2018-02-05T07:02:47.049Z,1026.13
2018-02-05T07:03:46.432Z,1026.17
2018-02-05T07:04:46.822Z,1026.14
2018-02-05T07:05:46.214Z,1026.2
2018-02-05T07:06:46.597Z,1026.17
2018-02-05T07:07:46.152Z,1026.2
2018-02-05T07:08:46.549Z,1026.19
2018-02-05T07:09:46.229Z,1026.2
2018-02-05T07:10:46.726Z,1026.2
2018-02-05T07:11:46.126Z,1026.27
2018-02-05T07:12:46.504Z,1026.22
2018-02-05T07:13:47.002Z,1026.26
2018-02-05T07:14:46.390Z,1026.17
2018-02-05T07:15:46.788Z,1026.16
2018-02-05T07:16:46.183Z,1026.24
2018-02-05T07:17:46.577Z,1026.28
2018-02-05T07:18:47.016Z,1026.27
2018-02-05T07:19:46.405Z,1026.27
2018-02-05T07:20:46.853Z,1026.29
2018-02-05T07:21:46.248Z,1026.25
2018-02-05T07:22:46.631Z,1026.27
2018-02-05T07:23:47.035Z,1026.29
2018-02-05T07:24:46.421Z,1026.21
2018-02-05T07:25:46.820Z,1026.23
2018-02-05T07:26:46.257Z,1026.22
2018-02-05T07:27:46.692Z,1026.25
2018-02-05T07:28:46.088Z,1026.25
2018-02-05T07:29:46.510Z,1026.24
2018-02-05T07:30:46.930Z,1026.25
2018-02-05T07:31:46.287Z,1026.25
2018-02-05T07:32:46.704Z,1026.28
2018-02-05T07:33:46.127Z,1026.23
2018-02-05T07:34:46.480Z,1026.2
2018-02-05T07:35:46.872Z,1026.21
2018-02-05T07:36:46.316Z,1026.21
2018-02-05T07:37:46.704Z,1026.2
2018-02-05T07:38:46.088Z,1026.18
2018-02-05T07:39:45.484Z,1026.2
2018-02-05T07:40:45.869Z,1026.2
2018-02-05T07:41:46.308Z,1026.19
2018-02-05T07:42:45.797Z,1026.22
2018-02-05T07:43:46.181Z,1026.22
2018-02-05T07:44:45.629Z,1026.24
2018-02-05T07:45:46.047Z,1026.32
2018-02-05T07:46:45.455Z,1026.35
2018-02-05T07:47:45.834Z,1026.36
2018-02-05T07:48:46.243Z,1026.37
2018-02-05T07:49:45.629Z,1026.44
2018-02-05T07:50:46.048Z,1026.44
2018-02-05T07:51:45.452Z,1026.46
2018-02-05T07:52:45.857Z,1026.45
2018-02-05T07:53:46.247Z,1026.48
2018-02-05T07:54:45.631Z,1026.48
2018-02-05T07:55:46.030Z,1026.47
2018-02-05T07:56:46.432Z,1026.46
2018-02-05T07:57:45.824Z,1026.43
2018-02-05T07:58:46.247Z,1026.43
2018-02-05T07:59:45.719Z,1026.45
2018-02-05T08:00:46.128Z,1026.48
2018-02-05T08:01:45.539Z,1026.43
2018-02-05T08:02:45.961Z,1026.47
2018-02-05T08:03:46.370Z,1026.44
2018-02-05T08:04:45.794Z,1026.44
2018-02-05T08:05:46.239Z,1026.44
2018-02-05T08:06:45.656Z,1026.39
2018-02-05T08:07:46.079Z,1026.44
2018-02-05T08:08:46.486Z,1026.41
2018-02-05T08:09:46.906Z,1026.38
2018-02-05T08:10:46.552Z,1026.37
2018-02-05T08:11:46.983Z,1026.41
2018-02-05T08:12:46.407Z,1026.31
2018-02-05T08:13:46.809Z,1026.36
2018-02-05T08:14:47.228Z,1026.34
2018-02-05T08:15:46.692Z,1026.32
2018-02-05T08:16:47.122Z,1026.32
2018-02-05T08:17:46.561Z,1026.32
2018-02-05T08:18:46.969Z,1026.3
2018-02-05T08:19:46.399Z,1026.38
2018-02-05T08:20:46.844Z,1026.41
2018-02-05T08:21:46.257Z,1026.44
2018-02-05T08:22:46.627Z,1026.44
2018-02-05T08:23:47.071Z,1026.44
2018-02-05T08:24:46.497Z,1026.41
2018-02-05T08:25:46.973Z,1026.36
2018-02-05T08:26:46.394Z,1026.36
2018-02-05T08:27:46.806Z,1026.3
2018-02-05T08:28:47.222Z,1026.28
2018-02-05T08:29:46.662Z,1026.23
2018-02-05T08:30:47.079Z,1026.2
2018-02-05T08:31:46.524Z,1026.19
2018-02-05T08:32:46.929Z,1026.14
2018-02-05T08:33:46.361Z,1026.22
2018-02-05T08:34:46.787Z,1026.15
2018-02-05T08:35:47.223Z,1026.18
2018-02-05T08:36:46.633Z,1026.18
2018-02-05T08:37:47.036Z,1026.23
2018-02-05T08:38:46.478Z,1026.21
2018-02-05T08:39:46.890Z,1026.17
2018-02-05T08:40:46.310Z,1026.24
2018-02-05T08:41:46.715Z,1026.2
2018-02-05T08:42:46.139Z,1026.17
2018-02-05T08:43:46.558Z,1026.19
2018-02-05T08:44:46.023Z,1026.16
2018-02-05T08:45:46.467Z,1026.18
2018-02-05T08:46:46.886Z,1026.13
2018-02-05T08:47:46.289Z,1026.16
2018-02-05T08:48:46.719Z,1026.09
2018-02-05T08:49:46.180Z,1026.1
2018-02-05T08:51:46.552Z,1026.13
2018-02-05T08:52:45.976Z,1026.16
2018-02-05T08:53:46.398Z,1026.09
2018-02-05T08:54:46.866Z,1026.12
2018-02-05T08:55:46.327Z,1026.1
2018-02-05T08:56:46.828Z,1026.09
2018-02-05T08:57:46.256Z,1026.08
2018-02-05T08:58:46.662Z,1026.06
2018-02-05T08:59:46.092Z,1026.12
2018-02-05T09:00:46.496Z,1026.16
2018-02-05T09:01:46.973Z,1026.12
2018-02-05T09:02:46.372Z,1026.09
2018-02-05T09:03:46.808Z,1026.13
2018-02-05T09:04:46.269Z,1026.13
2018-02-05T09:05:46.705Z,1026.13
2018-02-05T09:06:46.223Z,1026.12
2018-02-05T09:07:46.656Z,1026.14
2018-02-05T09:08:46.157Z,1026.14
2018-02-05T09:09:46.523Z,1026.1
2018-02-05T09:10:46.972Z,1026.14
2018-02-05T09:11:46.643Z,1026.12
2018-02-05T09:12:47.077Z,1026.12
2018-02-05T09:13:46.497Z,1026.13
2018-02-05T09:14:46.924Z,1026.12
2018-02-05T09:15:46.354Z,1026.13
2018-02-05T09:16:46.771Z,1026.12
2018-02-05T09:17:46.185Z,1026.13
2018-02-05T09:18:46.615Z,1026.16
2018-02-05T09:19:47.050Z,1026.05
2018-02-05T09:20:46.553Z,1026.1
2018-02-05T09:21:46.962Z,1026.11
2018-02-05T09:22:46.403Z,1026.08
2018-02-05T09:23:46.815Z,1026.08
2018-02-05T09:24:46.229Z,1026.1
2018-02-05T09:25:46.665Z,1026.08
2018-02-05T09:26:47.096Z,1026.04
2018-02-05T09:27:46.512Z,1026.08
2018-02-05T09:28:46.939Z,1026
2018-02-05T09:29:46.395Z,1026.06
2018-02-05T09:30:46.831Z,1026.07
2018-02-05T09:31:46.413Z,1026.07
2018-02-05T09:32:46.835Z,1026.09
2018-02-05T09:33:46.262Z,1026.05
2018-02-05T09:34:46.695Z,1026.06
2018-02-05T09:35:46.116Z,1026.04
2018-02-05T09:36:46.541Z,1026.04
2018-02-05T09:37:46.973Z,1026.03
2018-02-05T09:38:45.497Z,1026.05
2018-02-05T09:39:45.922Z,1026.02
2018-02-05T09:40:46.335Z,1026.02
2018-02-05T09:41:45.754Z,1026.03
2018-02-05T09:43:49.542Z,1026.04
2018-02-05T09:44:45.996Z,1026.06
2018-02-05T09:46:45.808Z,1026.04
2018-02-05T09:47:46.331Z,1026.07
2018-02-05T09:48:45.767Z,1025.97
2018-02-05T09:49:46.201Z,1026.03
2018-02-05T09:50:45.624Z,1026.03
2018-02-05T09:51:46.063Z,1025.98
2018-02-05T09:52:45.490Z,1025.97
2018-02-05T09:53:45.915Z,1025.98
2018-02-05T09:54:46.338Z,1025.97
2018-02-05T09:55:45.775Z,1025.96
2018-02-05T09:56:46.204Z,1026
2018-02-05T09:57:45.655Z,1025.98
2018-02-05T09:58:46.105Z,1026
2018-02-05T09:59:45.602Z,1025.98
2018-02-05T10:00:46.013Z,1025.99
2018-02-05T10:01:45.436Z,1026
2018-02-05T10:02:45.933Z,1026.01
2018-02-05T10:03:46.351Z,1026.01
2018-02-05T10:04:45.802Z,1026.01
2018-02-05T10:05:46.223Z,1026.02
2018-02-05T10:06:45.661Z,1026.01
2018-02-05T10:07:46.231Z,1026.04
2018-02-05T10:08:45.690Z,1026.04
2018-02-05T10:09:46.072Z,1026.05
2018-02-05T10:10:45.490Z,1026.07
2018-02-05T10:11:45.921Z,1026.04
2018-02-05T10:12:45.596Z,1026.13
2018-02-05T10:13:46.020Z,1026.04
2018-02-05T10:14:45.441Z,1026.11
2018-02-05T10:15:45.866Z,1026.05
2018-02-05T10:16:46.299Z,1026.04
2018-02-05T10:17:45.734Z,1026.05
2018-02-05T10:18:46.168Z,1026.04
2018-02-05T10:19:45.589Z,1026.05
2018-02-05T10:20:46.004Z,1026.04
2018-02-05T10:21:46.408Z,1026.05
2018-02-05T10:22:45.831Z,1026.04
2018-02-05T10:23:46.255Z,1026.05
2018-02-05T10:24:45.694Z,1026.01
2018-02-05T10:25:46.130Z,1026.01
2018-02-05T10:26:45.541Z,1025.96
2018-02-05T10:27:45.971Z,1025.96
2018-02-05T10:28:46.404Z,1025.92
2018-02-05T10:29:45.815Z,1025.99
2018-02-05T10:30:46.271Z,1025.97
2018-02-05T10:31:45.749Z,1025.95
2018-02-05T10:32:46.180Z,1025.95
2018-02-05T10:33:45.599Z,1025.95
2018-02-05T10:34:46.020Z,1025.91
2018-02-05T10:35:45.458Z,1025.89
2018-02-05T10:36:45.883Z,1025.88
2018-02-05T10:37:46.316Z,1025.88
2018-02-05T10:38:45.840Z,1025.85
2018-02-05T10:39:46.265Z,1025.83
2018-02-05T10:40:46.696Z,1025.81
2018-02-05T10:41:47.123Z,1025.82
2018-02-05T10:42:46.543Z,1025.82
2018-02-05T10:43:46.969Z,1025.77
2018-02-05T10:44:46.446Z,1025.8
2018-02-05T10:45:46.871Z,1025.78
2018-02-05T10:46:46.323Z,1025.78
2018-02-05T10:47:46.757Z,1025.72
2018-02-05T10:48:47.190Z,1025.74
2018-02-05T10:49:46.666Z,1025.76
2018-02-05T10:50:47.091Z,1025.72
2018-02-05T10:51:46.562Z,1025.73
2018-02-05T10:52:46.987Z,1025.77
2018-02-05T10:53:46.415Z,1025.71
2018-02-05T10:54:46.839Z,1025.73
2018-02-05T10:55:46.264Z,1025.75
2018-02-05T10:56:46.678Z,1025.78
2018-02-05T10:57:47.167Z,1025.67
2018-02-05T10:58:46.614Z,1025.67
2018-02-05T10:59:47.043Z,1025.67
2018-02-05T11:00:46.493Z,1025.67
2018-02-05T11:01:46.968Z,1025.65
2018-02-05T11:02:46.434Z,1025.59
2018-02-05T11:03:46.869Z,1025.62
2018-02-05T11:04:46.276Z,1025.57
2018-02-05T11:05:46.701Z,1025.6
2018-02-05T11:06:47.136Z,1025.61
2018-02-05T11:07:46.553Z,1025.5
2018-02-05T11:08:47.084Z,1025.56
2018-02-05T11:09:46.512Z,1025.54
2018-02-05T11:10:46.935Z,1025.48
2018-02-05T11:11:46.374Z,1025.52
2018-02-05T11:12:46.776Z,1025.46
2018-02-05T11:13:46.693Z,1025.42
2018-02-05T11:14:46.138Z,1025.42
2018-02-05T11:15:46.559Z,1025.43
2018-02-05T11:16:46.992Z,1025.42
2018-02-05T11:17:46.461Z,1025.43
2018-02-05T11:18:46.890Z,1025.42
2018-02-05T11:19:46.311Z,1025.42
2018-02-05T11:20:46.753Z,1025.4
2018-02-05T11:21:46.169Z,1025.37
2018-02-05T11:22:46.707Z,1025.37
2018-02-05T11:23:46.140Z,1025.4
2018-02-05T11:24:46.568Z,1025.36
2018-02-05T11:25:47.011Z,1025.31
2018-02-05T11:26:46.408Z,1025.32
2018-02-05T11:27:46.832Z,1025.32
2018-02-05T11:28:46.265Z,1025.31
2018-02-05T11:29:46.686Z,1025.29
2018-02-05T11:30:46.117Z,1025.33
2018-02-05T11:31:46.552Z,1025.28
2018-02-05T11:32:46.979Z,1025.28
2018-02-05T11:33:46.419Z,1025.27
2018-02-05T11:34:46.848Z,1025.25
2018-02-05T11:35:46.277Z,1025.25
2018-02-05T11:36:46.698Z,1025.23
2018-02-05T11:37:46.140Z,1025.21
2018-02-05T11:38:46.581Z,1025.21
2018-02-05T11:39:46.207Z,1025.21
2018-02-05T11:40:46.626Z,1025.22
2018-02-05T11:41:47.047Z,1025.17
2018-02-05T11:42:46.461Z,1025.2
2018-02-05T11:43:46.915Z,1025.23
2018-02-05T11:44:46.298Z,1025.17
2018-02-05T11:45:46.725Z,1025.24
2018-02-05T11:46:46.181Z,1025.18
2018-02-05T11:47:46.703Z,1025.15
2018-02-05T11:48:47.126Z,1025.12
2018-02-05T11:49:46.533Z,1025.16
2018-02-05T11:50:46.958Z,1025.16
2018-02-05T11:51:46.373Z,1025.17
2018-02-05T11:52:46.827Z,1025.12
2018-02-05T11:53:46.253Z,1025.14
2018-02-05T11:54:46.683Z,1025.16
2018-02-05T11:55:47.104Z,1025.13
2018-02-05T11:56:46.512Z,1025.07
2018-02-05T11:57:46.948Z,1025.07
2018-02-05T11:58:46.385Z,1025.12
2018-02-05T11:59:46.802Z,1025.06
2018-02-05T12:00:46.223Z,1025.01
2018-02-05T12:01:46.650Z,1025.04
2018-02-05T12:02:47.151Z,1025
2018-02-05T12:03:46.551Z,1024.99
2018-02-05T12:04:47.002Z,1024.99
2018-02-05T12:05:46.431Z,1024.96
2018-02-05T12:06:46.855Z,1024.92
2018-02-05T12:07:46.297Z,1024.98
2018-02-05T12:08:46.718Z,1024.91
2018-02-05T12:09:46.202Z,1024.91
2018-02-05T12:10:46.614Z,1024.94
2018-02-05T12:11:47.036Z,1024.88
2018-02-05T12:12:46.452Z,1024.87
2018-02-05T12:13:46.889Z,1024.87